Glenburn, ND

1:12 PM CDT on September 02, 2015 (GMT -0500)
APRSWXNET | | Change Station
CLOSE
Current Station
Personal Weather Station
Location: Glenburn, ND
Elevation: 1574 ft
Nearby Weather Stations

Elev 1574 ft 48.45 °N, 101.22 °W | Updated 32 minutes ago

Clear
Clear
86 °F
Feels Like 90 °F
N
8
Wind Variable Wind from SSE
Gusts 12.0 mph

Today
High -- | Low -- °F
--% Chance of Precip.
Yesterday
High -- | Low -- °F
Precip. -- in
7:03 AM 8:25 PM
Waning Gibbous, 78% visible
Pressure 29.73 in
Visibility 10.0 miles
Clouds Clear
Heat Index 90 °F
Dew Point 68 °F
Humidity 56%
Rainfall in
Snow Depth Not available.
UV 7 out of 12
Pollen 10.40 out of 12
Air Quality Not available.
Flu Activity Not available.
METAR KMIB 021758Z AUTO 13011KT 10SM CLR 32/19 A2974 RMK AO2 SLP067 T03170194 10317 20126 57007 $
Pressure 29.73 in
Visibility 10.0 miles
Clouds Clear
Heat Index 90 °F
Dew Point 68 °F
Humidity 56%
Rainfall in
Snow Depth Not available.
UV 7 out of 12
Pollen 10.40 out of 12
Air Quality Not available.
Flu Activity Not available.
METAR KMIB 021758Z AUTO 13011KT 10SM CLR 32/19 A2974 RMK AO2 SLP067 T03170194 10317 20126 57007 $

10-Day Weather Forecast

×

Almanac

Astronomy

Sep. 02, 2015 Rise Set
Actual Time
Civil Twilight
Nautical Twilight
Astronomical Twilight
Moon
Length of Visible Light
Length of Day
Tomorrow will be .
, % of the Moon is Illuminated

Today's Extremes

State Highs State Lows

Community

WunderPhotos

Upload Photos

1,851,790 photos uploaded!

WunderBlogs® & News

Nearby

Air Quality

  Air Quality AQ Index Pollutant
Not available.

Snow Depth

Station Depth Elevation

Earthquake Activity

City Distance Mag. Time & Date
Minimum magnitude displayed is 2.5.

Coastal Water Temperatures

Place Temperature

Stations

Nearby Weather Stations

Station Location Temp. Windchill Dew Point Humidity Wind Precip. Elev Updated Type